Time;durP1;ratioP1;P1;durP2;ratioP2;P2;SDS_P1;SDS_P2;PMS_P1;PMS_P2;Temp;Humidity;BMP_temperature;BMP_pressure;BME280_temperature;BME280_humidity;BME280_pressure;Samples;Min_cycle;Max_cycle;Signal;HPM_P1;HPM_P2
2024/03/19 00:02:25;;;;;;;37.00;16.30;;;;;;;5.92;81.93;101015.02;667203;1266;138749;-81
2024/03/19 00:17:28;;;;;;;54.70;22.30;;;;;;;5.96;81.17;101026.59;667476;1265;139209;-80
2024/03/19 00:32:31;;;;;;;37.40;18.50;;;;;;;5.96;80.87;101028.86;668439;1266;140532;-80
2024/03/19 00:47:35;;;;;;;25.20;12.70;;;;;;;5.82;80.43;101034.84;669746;1265;226388;-80
2024/03/19 01:02:38;;;;;;;42.90;20.80;;;;;;;5.40;79.69;101022.20;668209;1266;138907;-80
2024/03/19 01:17:42;;;;;;;46.80;22.60;;;;;;;4.89;79.24;101018.70;667911;1266;139171;-81
2024/03/19 01:32:45;;;;;;;51.30;23.40;;;;;;;4.60;79.51;101017.75;667775;1266;139545;-82
2024/03/19 01:47:49;;;;;;;39.80;17.90;;;;;;;4.16;78.64;101026.20;669176;1263;139195;-80
2024/03/19 02:02:52;;;;;;;32.60;14.20;;;;;;;4.09;78.43;101015.11;668597;1269;139067;-79
2024/03/19 02:17:55;;;;;;;30.90;15.80;;;;;;;4.17;76.29;101021.95;667542;1266;139141;-80
2024/03/19 02:32:59;;;;;;;54.10;20.50;;;;;;;3.97;75.66;101037.15;668365;1266;138908;-80
2024/03/19 02:48:03;;;;;;;44.10;18.90;;;;;;;3.81;75.24;101037.22;667895;1265;139043;-79
2024/03/19 03:03:06;;;;;;;40.20;17.90;;;;;;;3.00;77.49;101051.06;668854;1264;138563;-79
2024/03/19 03:18:11;;;;;;;38.70;17.20;;;;;;;2.04;81.99;101073.73;669512;1266;139774;-80
2024/03/19 03:33:15;;;;;;;76.90;28.40;;;;;;;1.88;82.43;101085.92;669244;1277;139316;-79
2024/03/19 03:48:18;;;;;;;116.40;36.80;;;;;;;1.74;82.85;101099.56;670669;1276;139298;-80
2024/03/19 04:03:21;;;;;;;85.80;34.40;;;;;;;1.73;83.13;101110.32;670698;1266;140921;-79
2024/03/19 04:18:25;;;;;;;74.70;29.10;;;;;;;1.91;83.21;101115.48;670700;1276;139298;-78
2024/03/19 04:33:29;;;;;;;52.90;22.40;;;;;;;1.90;83.26;101118.29;671626;1267;139901;-78
2024/03/19 04:48:32;;;;;;;52.30;20.20;;;;;;;1.83;83.19;101119.42;671759;1276;139975;-80
2024/03/19 05:03:36;;;;;;;62.80;26.90;;;;;;;1.79;83.53;101129.73;671679;1276;140414;-80
2024/03/19 05:18:43;;;;;;;72.30;32.10;;;;;;;2.05;84.71;101146.16;670143;1275;140968;-79
2024/03/19 05:33:47;;;;;;;159.50;51.20;;;;;;;2.61;86.07;101161.92;673954;1275;139149;-79
2024/03/19 05:49:27;;;;;;;296.10;95.90;;;;;;;3.07;86.64;101174.55;675638;1266;141671;-79
2024/03/19 06:05:13;;;;;;;154.70;64.70;;;;;;;3.48;86.90;101176.94;677274;1264;139620;-80
2024/03/19 06:21:38;;;;;;;190.60;77.50;;;;;;;3.82;87.60;101181.30;674820;1266;139649;-79
2024/03/19 07:11:09;;;;;;;80.40;35.60;;;;;;;5.46;88.07;101193.31;640200;1295;544917;-60
2024/03/19 07:26:15;;;;;;;45.50;20.30;;;;;;;6.03;88.20;101201.13;652244;1278;140139;-60
2024/03/19 07:41:19;;;;;;;40.30;19.50;;;;;;;6.15;87.42;101217.80;651563;1283;140837;-64
2024/03/19 07:56:30;;;;;;;33.00;16.40;;;;;;;6.44;87.05;101228.93;654482;1275;138829;-65
2024/03/19 08:11:34;;;;;;;27.50;12.00;;;;;;;6.65;85.53;101240.11;652084;1269;138695;-64
2024/03/19 08:26:51;;;;;;;;;;;;;;;6.86;84.80;101245.70;652155;1274;138502;-62
2024/03/19 08:41:55;;;;;;;57.20;26.20;;;;;;;6.89;84.16;101246.90;657056;1272;125180;-62
2024/03/19 08:56:59;;;;;;;32.30;16.80;;;;;;;7.72;83.31;101247.59;651801;1285;139743;-62
2024/03/19 09:12:03;;;;;;;28.80;15.20;;;;;;;9.78;81.75;101248.71;651986;1275;139077;-62
2024/03/19 09:27:08;;;;;;;16.10;9.20;;;;;;;10.76;78.90;101245.53;652474;1275;140216;-62
2024/03/19 09:42:24;;;;;;;14.80;8.30;;;;;;;8.92;76.47;101248.23;653148;1274;138883;-68
2024/03/19 09:57:29;;;;;;;45.40;22.50;;;;;;;7.99;76.09;101263.08;652323;1270;138791;-61
2024/03/19 10:12:34;;;;;;;35.70;16.60;;;;;;;7.58;75.95;101266.43;657074;1263;138902;-62
2024/03/19 10:27:43;;;;;;;19.60;10.90;;;;;;;7.93;75.73;101256.23;671690;1262;139490;-67
2024/03/19 10:42:50;;;;;;;27.90;14.50;;;;;;;8.49;75.07;101251.63;655649;1277;139566;-61
2024/03/19 10:57:53;;;;;;;20.20;11.70;;;;;;;8.70;74.48;101248.19;662665;1278;139247;-61
2024/03/19 11:13:21;;;;;;;14.40;9.80;;;;;;;9.24;73.91;101247.07;660870;1265;139414;-61
2024/03/19 11:28:30;;;;;;;25.60;9.60;;;;;;;9.73;72.31;101240.99;655660;1265;141503;-61
2024/03/19 11:43:37;;;;;;;13.60;8.40;;;;;;;10.52;70.90;101240.70;655943;1262;138829;-61
2024/03/19 11:58:41;;;;;;;22.80;12.10;;;;;;;10.22;69.68;101233.70;656051;1265;139396;-61
2024/03/19 12:13:45;;;;;;;20.40;10.10;;;;;;;10.43;69.56;101232.55;655985;1273;139641;-61
2024/03/19 12:28:52;;;;;;;13.10;7.50;;;;;;;11.28;67.92;101222.44;657847;1272;139586;-60
2024/03/19 12:43:56;;;;;;;11.60;7.60;;;;;;;10.78;68.01;101211.55;658395;1263;140297;-60
2024/03/19 12:58:59;;;;;;;8.90;5.30;;;;;;;10.42;67.47;101203.80;657612;1264;139261;-66
2024/03/19 13:14:03;;;;;;;20.80;10.50;;;;;;;11.34;67.20;101188.40;657232;1264;138522;-63
2024/03/19 13:29:07;;;;;;;17.40;9.00;;;;;;;10.67;67.09;101182.02;660935;1263;140370;-60
2024/03/19 13:44:10;;;;;;;22.00;12.10;;;;;;;10.43;67.82;101173.52;656248;1266;138868;-60
2024/03/19 13:59:15;;;;;;;22.50;10.80;;;;;;;10.77;67.55;101165.04;655483;1261;139373;-61
2024/03/19 14:14:19;;;;;;;17.00;9.60;;;;;;;10.83;67.83;101161.67;656175;1262;139083;-64
2024/03/19 14:29:22;;;;;;;15.90;8.10;;;;;;;10.91;68.03;101154.40;656317;1276;139935;-66
2024/03/19 14:44:25;;;;;;;17.10;7.30;;;;;;;10.47;66.58;101148.52;657646;1264;139235;-62
2024/03/19 14:59:35;;;;;;;18.00;8.60;;;;;;;9.52;66.63;101155.08;655931;1265;141310;-63
2024/03/19 15:14:39;;;;;;;21.40;10.50;;;;;;;9.19;67.46;101161.38;656467;1265;138869;-64
2024/03/19 15:29:46;;;;;;;41.90;19.40;;;;;;;9.02;67.93;101161.27;656857;1264;139480;-61
2024/03/19 15:44:58;;;;;;;25.90;13.70;;;;;;;8.77;68.32;101161.19;656322;1265;139122;-62
2024/03/19 16:00:09;;;;;;;19.70;9.70;;;;;;;8.55;68.79;101164.06;656063;1263;139638;-62
2024/03/19 16:15:25;;;;;;;209.50;75.80;;;;;;;8.25;69.72;101171.91;656859;1265;22488;-59
2024/03/19 16:30:28;;;;;;;88.30;34.50;;;;;;;8.07;69.75;101173.89;656872;1272;138942;-59
2024/03/19 16:45:32;;;;;;;57.70;25.30;;;;;;;7.86;69.34;101174.83;657848;1265;139260;-58
2024/03/19 17:00:36;;;;;;;95.50;40.40;;;;;;;7.58;69.22;101186.99;660750;1265;138744;-60
2024/03/19 17:15:40;;;;;;;190.00;89.70;;;;;;;7.22;69.67;101210.60;660906;1265;22596;-59
2024/03/19 17:30:44;;;;;;;235.60;83.60;;;;;;;6.84;70.09;101216.23;657547;1266;142273;-58
2024/03/19 17:45:48;;;;;;;641.60;236.40;;;;;;;6.31;70.05;101227.54;656373;1268;139638;-58
2024/03/19 18:00:59;;;;;;;288.50;108.50;;;;;;;5.65;71.29;101231.86;660195;1268;139791;-59
2024/03/19 18:16:04;;;;;;;209.40;77.50;;;;;;;4.18;74.86;101229.54;670463;1265;139163;-58
2024/03/19 18:31:08;;;;;;;184.00;71.40;;;;;;;4.14;75.60;101227.64;676052;1265;140708;-59
2024/03/19 18:46:13;;;;;;;192.70;70.00;;;;;;;3.83;76.46;101221.73;655876;1263;139513;-59
2024/03/19 19:01:17;;;;;;;367.90;134.60;;;;;;;3.88;76.42;101224.82;656128;1265;139126;-59
2024/03/19 19:16:21;;;;;;;497.80;165.40;;;;;;;3.63;76.96;101238.58;663791;1265;187917;-59
2024/03/19 19:31:26;;;;;;;198.60;75.90;;;;;;;3.37;77.60;101248.85;656248;1274;140402;-60
2024/03/19 19:46:30;;;;;;;105.00;46.50;;;;;;;3.35;77.41;101248.22;680780;1265;140507;-57
2024/03/19 20:01:33;;;;;;;146.70;55.20;;;;;;;3.47;77.61;101233.20;658714;1264;139489;-58
2024/03/19 20:16:37;;;;;;;232.90;78.50;;;;;;;3.31;77.75;101233.36;658788;1265;139061;-59
2024/03/19 20:31:40;;;;;;;68.70;29.40;;;;;;;2.88;77.72;101237.02;656322;1273;139503;-61
2024/03/19 20:46:44;;;;;;;76.30;28.50;;;;;;;2.52;78.09;101234.80;658005;1265;140452;-65
2024/03/19 21:01:48;;;;;;;79.50;30.90;;;;;;;2.32;78.54;101220.59;657371;1272;140862;-60
2024/03/19 21:16:51;;;;;;;128.90;42.10;;;;;;;1.63;80.76;101212.58;656427;1265;140243;-60
2024/03/19 21:31:58;;;;;;;132.50;44.20;;;;;;;1.05;83.89;101203.89;656352;1267;139363;-60
2024/03/19 21:47:01;;;;;;;199.80;65.50;;;;;;;0.89;84.96;101206.33;656085;1261;139696;-63
2024/03/19 22:02:04;;;;;;;296.80;83.40;;;;;;;0.62;86.06;101207.35;655940;1266;140193;-60
2024/03/19 22:17:08;;;;;;;369.90;109.10;;;;;;;0.40;86.27;101204.45;655755;1266;140491;-66
2024/03/19 22:32:11;;;;;;;144.70;52.10;;;;;;;0.21;87.63;101209.65;656090;1268;139392;-61
2024/03/19 22:47:14;;;;;;;239.10;72.80;;;;;;;0.03;88.44;101204.02;656774;1269;139040;-63
2024/03/19 23:02:18;;;;;;;322.20;94.80;;;;;;;-0.22;89.19;101211.95;657050;1265;140192;-65
2024/03/19 23:17:21;;;;;;;232.20;73.40;;;;;;;0.15;88.82;101196.95;657153;1266;139693;-65
2024/03/19 23:32:25;;;;;;;227.00;77.00;;;;;;;1.57;80.20;101192.14;656124;1266;139260;-64
2024/03/19 23:47:28;;;;;;;83.40;33.50;;;;;;;1.43;78.65;101193.98;656544;1267;139376;-64
